Time;durP1;ratioP1;P1;durP2;ratioP2;P2;SDS_P1;SDS_P2;PMS_P1;PMS_P2;Temp;Humidity;BMP_temperature;BMP_pressure;BME280_temperature;BME280_humidity;BME280_pressure;Samples;Min_cycle;Max_cycle;Signal;HPM_P1;HPM_P2
2023/11/03 00:01:50;;;;;;;17.65;11.10;;;;;;;6.65;87.74;99929.53;1658204;86;21110;-66
2023/11/03 00:04:17;;;;;;;19.52;11.25;;;;;;;6.64;87.93;99935.16;1645884;87;21086;-66
2023/11/03 00:06:46;;;;;;;20.20;12.40;;;;;;;6.58;88.10;99923.13;1574164;91;21087;-66
2023/11/03 00:09:15;;;;;;;29.35;13.18;;;;;;;6.54;88.37;99922.32;1604304;89;21087;-67
2023/11/03 00:11:48;;;;;;;24.92;14.28;;;;;;;6.51;88.65;99922.17;1603565;89;21153;-66
2023/11/03 00:14:19;;;;;;;24.85;13.40;;;;;;;6.52;88.87;99916.21;1580302;90;21086;-66
2023/11/03 00:16:50;;;;;;;20.70;12.43;;;;;;;6.51;88.93;99926.77;1600559;90;21103;-66
2023/11/03 00:19:20;;;;;;;22.10;13.38;;;;;;;6.48;89.12;99925.23;1600385;90;21034;-67
2023/11/03 00:21:51;;;;;;;26.27;14.47;;;;;;;6.46;89.18;99930.01;1600422;90;21066;-66
2023/11/03 00:24:19;;;;;;;25.48;14.47;;;;;;;6.44;89.42;99929.34;1601584;85;21031;-65
2023/11/03 00:26:53;;;;;;;27.37;13.88;;;;;;;6.44;89.64;99934.78;1649648;87;21035;-66
2023/11/03 00:29:22;;;;;;;27.95;14.18;;;;;;;6.44;89.66;99932.58;1682654;85;21027;-66
2023/11/03 00:31:51;;;;;;;24.20;14.07;;;;;;;6.44;89.76;99934.78;1682746;85;21091;-68
2023/11/03 00:34:22;;;;;;;30.25;13.70;;;;;;;6.42;89.66;99931.91;1649658;87;21139;-67
2023/11/03 00:36:52;;;;;;;27.45;14.95;;;;;;;6.40;89.75;99932.09;1682609;85;21051;-66
2023/11/03 00:39:21;;;;;;;29.52;14.68;;;;;;;6.39;89.86;99929.56;1568378;91;21103;-66
2023/11/03 00:41:51;;;;;;;24.25;13.88;;;;;;;6.40;89.98;99919.00;1568169;91;21523;-65
2023/11/03 00:44:22;;;;;;;28.92;14.33;;;;;;;6.39;90.10;99923.60;1568192;91;21131;-67
2023/11/03 00:46:51;;;;;;;24.00;13.15;;;;;;;6.36;90.13;99930.77;1568185;91;21160;-66
2023/11/03 00:49:20;;;;;;;26.75;13.68;;;;;;;6.30;90.27;99930.98;1568351;91;21144;-68
2023/11/03 00:51:50;;;;;;;22.82;11.78;;;;;;;6.29;90.58;99931.16;1568214;91;21120;-67
2023/11/03 00:54:18;;;;;;;25.70;11.85;;;;;;;6.29;90.76;99936.61;1568172;91;21597;-66
2023/11/03 00:56:47;;;;;;;20.05;11.28;;;;;;;6.26;90.92;99926.09;1584650;87;21054;-66
2023/11/03 00:59:17;;;;;;;22.15;11.97;;;;;;;6.23;91.20;99930.53;1682686;85;21039;-66
2023/11/03 01:01:46;;;;;;;23.32;11.35;;;;;;;6.25;91.43;99933.92;1649632;87;21055;-66
2023/11/03 01:04:15;;;;;;;24.72;11.55;;;;;;;6.29;91.69;99930.66;1682587;85;21066;-67
2023/11/03 01:06:44;;;;;;;23.75;11.00;;;;;;;6.35;91.77;99931.80;1649596;87;21051;-66
2023/11/03 01:09:13;;;;;;;21.90;11.28;;;;;;;6.35;91.86;99936.72;1682711;85;21071;-66
2023/11/03 01:11:42;;;;;;;22.82;11.03;;;;;;;6.38;92.05;99932.80;1649775;87;21103;-67
2023/11/03 01:14:13;;;;;;;19.50;10.85;;;;;;;6.42;92.18;99928.68;1682580;85;21055;-66
2023/11/03 01:16:42;;;;;;;18.85;10.43;;;;;;;6.46;92.29;99927.80;1682898;85;21055;-66
2023/11/03 01:19:12;;;;;;;17.60;10.40;;;;;;;6.48;92.34;99929.82;1682795;85;21096;-66
2023/11/03 01:21:43;;;;;;;20.43;11.05;;;;;;;6.50;92.43;99942.25;1649790;87;21023;-67
2023/11/03 01:24:13;;;;;;;21.12;10.95;;;;;;;6.50;92.34;99940.02;1682548;85;21027;-66
2023/11/03 01:26:43;;;;;;;23.50;11.18;;;;;;;6.51;92.27;99943.09;1649584;86;21549;-67
2023/11/03 01:29:12;;;;;;;19.82;11.12;;;;;;;6.47;92.29;99934.42;1682739;85;21130;-67
2023/11/03 01:31:43;;;;;;;18.27;10.30;;;;;;;6.47;92.40;99934.42;1649850;87;21178;-66
2023/11/03 01:34:12;;;;;;;19.73;11.18;;;;;;;6.49;92.39;99936.95;1682721;85;21066;-65
2023/11/03 01:36:43;;;;;;;19.35;10.85;;;;;;;6.49;92.42;99924.20;1633770;85;21146;-66
2023/11/03 01:39:12;;;;;;;20.20;11.53;;;;;;;6.49;92.42;99928.28;1682648;85;21039;-66
2023/11/03 01:41:41;;;;;;;22.77;11.65;;;;;;;6.47;92.36;99927.62;1682584;85;21091;-66
2023/11/03 01:44:11;;;;;;;17.23;10.23;;;;;;;6.44;92.34;99923.90;1682837;85;21055;-66
2023/11/03 01:46:40;;;;;;;17.80;10.45;;;;;;;6.42;92.50;99927.31;1649594;86;22159;-66
2023/11/03 01:49:11;;;;;;;19.20;11.22;;;;;;;6.43;92.59;99931.73;1682772;85;21439;-67
2023/11/03 01:51:40;;;;;;;20.15;10.65;;;;;;;6.47;92.68;99930.86;1682730;85;21035;-66
2023/11/03 01:54:10;;;;;;;16.55;10.23;;;;;;;6.48;92.69;99935.27;1682572;85;21063;-66
2023/11/03 01:56:39;;;;;;;17.77;9.93;;;;;;;6.49;92.66;99939.17;1682296;85;21027;-66
2023/11/03 01:59:07;;;;;;;22.40;10.15;;;;;;;6.50;92.68;99938.17;1659294;85;21043;-66
2023/11/03 02:01:37;;;;;;;16.42;9.80;;;;;;;6.48;92.67;99936.62;1649527;87;21542;-66
2023/11/03 02:04:07;;;;;;;18.42;10.75;;;;;;;6.48;92.79;99938.83;1682626;85;21016;-66
2023/11/03 02:06:35;;;;;;;19.57;10.38;;;;;;;6.51;92.97;99940.37;1649419;87;21047;-69
2023/11/03 02:09:05;;;;;;;16.07;10.03;;;;;;;6.56;93.00;99937.95;1682659;85;21095;-65
2023/11/03 02:11:36;;;;;;;22.45;14.07;;;;;;;6.57;92.94;99939.64;1649500;87;21487;-67
2023/11/03 02:14:06;;;;;;;26.73;15.40;;;;;;;6.57;93.04;99942.36;1662675;85;21173;-66
2023/11/03 02:16:36;;;;;;;27.37;15.88;;;;;;;6.58;93.06;99949.50;1657861;86;21504;-66
2023/11/03 02:19:11;;;;;;;23.77;14.28;;;;;;;6.58;93.18;99950.34;1658026;86;21490;-66
2023/11/03 02:21:42;;;;;;;22.52;14.13;;;;;;;6.61;93.28;99955.42;1657795;86;21529;-66
2023/11/03 02:24:11;;;;;;;20.88;13.45;;;;;;;6.63;93.23;99947.92;1657847;86;21047;-67
2023/11/03 02:26:40;;;;;;;24.45;13.30;;;;;;;6.63;93.23;99950.64;1657722;86;21003;-65
2023/11/03 02:29:09;;;;;;;20.57;13.25;;;;;;;6.64;93.19;99950.13;1658073;86;21046;-67
2023/11/03 02:31:38;;;;;;;17.70;12.13;;;;;;;6.63;93.14;99956.60;1658011;86;21126;-67
2023/11/03 02:34:08;;;;;;;18.52;10.53;;;;;;;6.59;93.11;99954.77;1657894;86;21067;-66
2023/11/03 02:36:38;;;;;;;20.20;9.98;;;;;;;6.59;93.18;99949.83;1657930;86;21032;-66
2023/11/03 02:39:07;;;;;;;19.73;10.10;;;;;;;6.57;93.30;99951.38;1658101;86;21071;-67
2023/11/03 02:41:36;;;;;;;17.07;9.38;;;;;;;6.57;93.29;99951.38;1657684;86;21082;-66
2023/11/03 02:44:06;;;;;;;16.35;8.88;;;;;;;6.57;93.28;99951.38;1657819;86;21031;-65
2023/11/03 02:46:35;;;;;;;15.78;9.40;;;;;;;6.56;93.32;99951.05;1657799;86;21120;-66
2023/11/03 02:49:04;;;;;;;13.95;8.88;;;;;;;6.57;93.35;99951.89;1657810;86;21055;-66
2023/11/03 02:51:33;;;;;;;14.85;8.38;;;;;;;6.56;93.44;99942.88;1657803;86;21043;-66
2023/11/03 02:54:01;;;;;;;13.90;9.00;;;;;;;6.58;93.49;99946.27;1599816;89;21546;-66
2023/11/03 02:56:31;;;;;;;14.38;8.30;;;;;;;6.56;93.48;99952.41;1599671;90;21205;-67
2023/11/03 02:59:02;;;;;;;14.55;9.03;;;;;;;6.53;93.55;99952.77;1599885;90;21140;-66
2023/11/03 03:01:32;;;;;;;14.30;8.10;;;;;;;6.54;93.77;99955.83;1599745;89;21567;-66
2023/11/03 03:04:01;;;;;;;14.87;8.63;;;;;;;6.56;93.80;99960.57;1599883;90;21221;-66
2023/11/03 03:06:30;;;;;;;13.30;8.15;;;;;;;6.56;93.76;99957.00;1599690;90;21087;-66
2023/11/03 03:08:59;;;;;;;14.80;8.85;;;;;;;6.55;93.77;99950.71;1599744;90;21574;-66
2023/11/03 03:11:29;;;;;;;15.58;8.85;;;;;;;6.54;93.78;99953.10;1612201;86;21181;-66
2023/11/03 03:14:00;;;;;;;14.20;8.60;;;;;;;6.54;93.79;99949.02;1654561;86;21102;-66
2023/11/03 03:16:29;;;;;;;14.53;8.68;;;;;;;6.49;93.63;99950.56;1686178;85;21510;-66
2023/11/03 03:18:58;;;;;;;14.28;8.90;;;;;;;6.48;93.73;99955.67;1686194;84;21062;-66
2023/11/03 03:21:28;;;;;;;13.83;8.38;;;;;;;6.47;93.74;99953.47;1686158;85;21552;-67
2023/11/03 03:23:57;;;;;;;15.35;9.13;;;;;;;6.44;93.79;99962.00;1686320;84;21046;-67
2023/11/03 03:26:26;;;;;;;15.88;8.28;;;;;;;6.44;93.68;99962.00;1686394;85;21047;-66
2023/11/03 03:28:55;;;;;;;14.05;8.65;;;;;;;6.44;93.71;99959.28;1686203;85;21539;-65
2023/11/03 03:31:26;;;;;;;13.72;8.40;;;;;;;6.43;93.67;99960.30;1686387;85;21071;-67
2023/11/03 03:33:55;;;;;;;13.70;8.68;;;;;;;6.39;93.66;99956.26;1686388;85;21518;-67
2023/11/03 03:36:24;;;;;;;15.95;8.55;;;;;;;6.37;93.67;99950.15;1686174;85;21514;-66
2023/11/03 03:38:53;;;;;;;15.23;8.50;;;;;;;6.35;93.73;99953.05;1686196;84;21106;-65
2023/11/03 03:41:22;;;;;;;13.80;8.13;;;;;;;6.32;93.62;99943.89;1686366;85;21134;-66
2023/11/03 03:43:52;;;;;;;14.47;8.23;;;;;;;6.30;93.53;99946.46;1686159;85;21039;-65
2023/11/03 03:46:21;;;;;;;15.58;8.48;;;;;;;6.24;93.53;99950.75;1686315;85;21112;-65
2023/11/03 03:48:50;;;;;;;14.38;8.40;;;;;;;6.24;93.73;99949.91;1686208;85;21113;-65
2023/11/03 03:51:19;;;;;;;16.00;8.85;;;;;;;6.28;93.79;99952.59;1686348;84;21071;-66
2023/11/03 03:53:50;;;;;;;14.68;9.15;;;;;;;6.28;93.62;99948.00;1686379;85;21510;-65
2023/11/03 03:56:25;;;;;;;13.00;8.80;;;;;;;6.22;93.54;99941.92;1686313;84;21365;-67
2023/11/03 03:58:49;;;;;;;15.88;8.48;;;;;;;6.17;93.66;99938.91;1685672;84;21106;-64
2023/11/03 04:01:20;;;;;;;16.15;8.83;;;;;;;6.12;93.65;99930.95;1686150;85;21577;-65
2023/11/03 04:03:49;;;;;;;14.58;8.80;;;;;;;6.05;93.68;99928.11;1686240;85;21520;-66
2023/11/03 04:06:18;;;;;;;19.55;8.98;;;;;;;6.01;93.83;99928.13;1686154;85;21596;-66
2023/11/03 04:08:46;;;;;;;14.50;8.90;;;;;;;5.98;94.01;99925.77;1686366;85;21015;-66
2023/11/03 04:11:16;;;;;;;18.00;8.33;;;;;;;5.99;94.31;99920.16;1686337;85;21011;-66
2023/11/03 04:13:44;;;;;;;18.57;9.25;;;;;;;6.00;94.32;99924.57;1685643;85;21097;-66
2023/11/03 04:16:13;;;;;;;15.93;9.15;;;;;;;6.00;94.47;99925.92;1684896;85;21071;-65
2023/11/03 04:18:42;;;;;;;18.57;8.83;;;;;;;6.03;94.61;99927.44;1684912;85;21133;-66
2023/11/03 04:21:11;;;;;;;15.53;9.40;;;;;;;6.00;94.74;99925.92;1684822;85;21093;-65
2023/11/03 04:23:40;;;;;;;18.48;9.45;;;;;;;6.00;94.92;99917.77;1684900;85;21549;-66
2023/11/03 04:26:09;;;;;;;17.80;9.28;;;;;;;6.00;95.07;99921.00;1684963;85;21082;-67
2023/11/03 04:28:38;;;;;;;15.23;9.20;;;;;;;6.00;95.24;99915.05;1684957;85;21505;-65
2023/11/03 04:31:07;;;;;;;15.80;9.43;;;;;;;6.00;95.34;99920.48;1684944;85;21050;-65
2023/11/03 04:33:36;;;;;;;18.35;9.58;;;;;;;6.00;95.53;99925.92;1685068;85;21106;-65
2023/11/03 04:36:08;;;;;;;18.90;10.03;;;;;;;6.03;95.77;99926.08;1685095;85;21091;-65
2023/11/03 04:38:37;;;;;;;23.15;10.60;;;;;;;6.08;95.86;99921.46;1649636;87;21032;-65
2023/11/03 04:41:06;;;;;;;21.87;10.15;;;;;;;6.07;95.88;99917.89;1682576;85;21047;-65
2023/11/03 04:43:38;;;;;;;18.70;10.05;;;;;;;6.07;95.94;99926.05;1649692;87;21055;-66
2023/11/03 04:46:08;;;;;;;17.00;9.80;;;;;;;6.07;95.99;99920.61;1682720;85;21106;-67
2023/11/03 04:48:37;;;;;;;18.32;10.60;;;;;;;6.05;96.07;99918.59;1682745;85;21102;-65
2023/11/03 04:51:10;;;;;;;17.40;9.63;;;;;;;6.03;96.08;99917.41;1649647;87;21334;-66
2023/11/03 04:53:41;;;;;;;20.32;10.05;;;;;;;6.01;96.11;99918.62;1682707;85;21094;-67
2023/11/03 04:56:09;;;;;;;17.02;9.18;;;;;;;5.98;96.24;99915.74;1682745;85;21051;-66
2023/11/03 04:58:38;;;;;;;15.55;9.00;;;;;;;5.98;96.35;99915.74;1682599;85;21054;-67
2023/11/03 05:01:07;;;;;;;17.20;8.80;;;;;;;6.01;96.58;99915.90;1682589;85;21083;-66
2023/11/03 05:03:36;;;;;;;17.48;8.43;;;;;;;6.05;96.70;99926.75;1682490;85;21571;-65
2023/11/03 05:06:06;;;;;;;17.05;9.13;;;;;;;6.10;96.72;99929.77;1682646;85;21106;-66
2023/11/03 05:08:35;;;;;;;13.62;8.63;;;;;;;6.14;96.78;99928.90;1682593;85;21078;-66
2023/11/03 05:11:04;;;;;;;15.53;9.25;;;;;;;6.16;96.73;99920.89;1682452;85;21059;-67
2023/11/03 05:13:33;;;;;;;15.50;8.95;;;;;;;6.17;96.63;99926.66;1684518;85;21106;-65
2023/11/03 05:16:05;;;;;;;14.33;8.75;;;;;;;6.17;96.48;99926.66;1691198;84;21090;-66
2023/11/03 05:18:34;;;;;;;16.27;9.25;;;;;;;6.18;96.45;99932.95;1691151;85;21054;-65
2023/11/03 05:21:04;;;;;;;13.48;8.30;;;;;;;6.16;96.37;99923.61;1691260;84;21055;-66
2023/11/03 05:23:33;;;;;;;13.95;8.38;;;;;;;6.16;96.37;99928.20;1691334;85;21050;-66
2023/11/03 05:26:03;;;;;;;17.48;8.70;;;;;;;6.15;96.31;99926.00;1691324;85;21082;-66
2023/11/03 05:28:32;;;;;;;14.83;7.92;;;;;;;6.13;96.38;99925.33;1691179;85;21090;-65
2023/11/03 05:31:01;;;;;;;13.68;8.10;;;;;;;6.12;96.43;99934.52;1691164;85;21118;-67
2023/11/03 05:33:31;;;;;;;15.05;8.30;;;;;;;6.14;96.48;99935.70;1691366;85;21070;-66
2023/11/03 05:36:00;;;;;;;15.40;8.05;;;;;;;6.17;96.59;99933.97;1691029;85;21042;-66
2023/11/03 05:38:30;;;;;;;15.28;8.98;;;;;;;6.22;96.68;99943.28;1690927;85;21066;-65
2023/11/03 05:41:00;;;;;;;15.03;7.50;;;;;;;6.25;96.67;99947.00;1691226;85;21513;-65
2023/11/03 05:43:30;;;;;;;12.88;7.55;;;;;;;6.30;96.71;99938.30;1691221;85;21178;-64
2023/11/03 05:45:59;;;;;;;14.38;7.87;;;;;;;6.33;96.71;99942.86;1691277;85;21074;-66
2023/11/03 05:48:29;;;;;;;14.98;8.15;;;;;;;6.41;96.82;99937.03;1690892;85;21082;-66
2023/11/03 05:50:58;;;;;;;14.30;7.62;;;;;;;6.46;96.78;99932.73;1691184;84;21564;-66
2023/11/03 05:53:27;;;;;;;13.00;8.28;;;;;;;6.52;96.63;99932.55;1664260;85;21098;-65
2023/11/03 05:55:57;;;;;;;14.93;7.72;;;;;;;6.56;96.50;99928.42;1691334;85;21470;-66
2023/11/03 05:58:26;;;;;;;14.03;7.22;;;;;;;6.61;96.43;99936.89;1691139;85;21490;-66
2023/11/03 06:00:55;;;;;;;12.30;7.30;;;;;;;6.65;96.25;99925.96;1691248;85;21169;-65
2023/11/03 06:03:25;;;;;;;13.32;7.15;;;;;;;6.70;96.06;99926.77;1691117;85;21204;-65
2023/11/03 06:05:55;;;;;;;10.72;6.45;;;;;;;6.75;95.92;99922.98;1691168;85;21628;-65
2023/11/03 06:08:24;;;;;;;12.03;6.50;;;;;;;6.80;95.71;99919.19;1691103;85;21475;-67
2023/11/03 06:10:53;;;;;;;11.50;6.60;;;;;;;6.83;95.39;99912.01;1691333;85;21066;-66
2023/11/03 06:13:22;;;;;;;15.13;6.80;;;;;;;6.84;95.14;99910.98;1691006;85;21098;-66
2023/11/03 06:15:51;;;;;;;11.90;6.85;;;;;;;6.86;94.89;99914.36;1682519;85;21102;-68
2023/11/03 06:18:21;;;;;;;12.80;7.08;;;;;;;6.89;94.81;99909.39;1627196;88;21520;-76
2023/11/03 06:20:49;;;;;;;13.18;7.15;;;;;;;6.92;94.67;99914.97;1627410;88;21098;-66
2023/11/03 06:23:18;;;;;;;12.63;6.90;;;;;;;6.96;94.47;99912.20;1627566;88;21537;-66
2023/11/03 06:25:47;;;;;;;15.83;6.83;;;;;;;6.96;94.25;99915.78;1627491;88;21074;-66
2023/11/03 06:28:16;;;;;;;14.18;8.38;;;;;;;7.00;94.13;99913.02;1594489;89;21124;-67
2023/11/03 06:30:46;;;;;;;13.68;7.53;;;;;;;7.05;93.92;99914.33;1594258;90;21133;-66
2023/11/03 06:33:15;;;;;;;10.50;6.78;;;;;;;7.08;93.67;99915.31;1594408;90;21132;-66
2023/11/03 06:35:45;;;;;;;14.03;8.35;;;;;;;7.12;93.35;99909.82;1604832;87;21055;-66
2023/11/03 06:38:14;;;;;;;13.38;8.05;;;;;;;7.14;93.10;99911.84;1682512;85;21470;-67
2023/11/03 06:40:43;;;;;;;14.98;7.90;;;;;;;7.18;92.94;99910.47;1682647;85;21075;-66
2023/11/03 06:43:12;;;;;;;16.97;8.13;;;;;;;7.23;92.79;99918.41;1682642;85;21054;-66
2023/11/03 06:45:42;;;;;;;18.00;9.45;;;;;;;7.27;92.45;99901.16;1682541;85;21067;-66
2023/11/03 06:48:11;;;;;;;19.48;10.93;;;;;;;7.27;92.30;99902.01;1682481;85;21108;-66
2023/11/03 06:50:40;;;;;;;14.50;7.95;;;;;;;7.29;92.08;99905.91;1649688;87;21482;-65
2023/11/03 06:53:11;;;;;;;12.40;7.33;;;;;;;7.31;91.88;99902.48;1682627;85;21066;-66
2023/11/03 06:55:41;;;;;;;12.50;7.37;;;;;;;7.34;91.74;99896.65;1682607;85;21519;-66
2023/11/03 06:58:10;;;;;;;13.32;7.03;;;;;;;7.37;91.58;99894.06;1682627;85;21494;-65
2023/11/03 07:00:41;;;;;;;13.03;7.33;;;;;;;7.42;91.50;99902.52;1682558;85;21576;-65
2023/11/03 07:03:10;;;;;;;14.55;7.17;;;;;;;7.44;91.46;99900.45;1682620;85;21042;-65
2023/11/03 07:05:42;;;;;;;13.05;6.87;;;;;;;7.50;91.41;99896.44;1682628;85;21181;-66
2023/11/03 07:08:10;;;;;;;13.85;7.55;;;;;;;7.56;91.31;99892.11;1682689;85;21066;-66
2023/11/03 07:10:39;;;;;;;15.65;7.17;;;;;;;7.61;91.20;99885.56;1682599;85;21078;-66
2023/11/03 07:13:07;;;;;;;15.93;8.18;;;;;;;7.68;91.06;99886.48;1682639;85;21463;-67
2023/11/03 07:15:38;;;;;;;12.93;7.42;;;;;;;7.73;90.92;99900.39;1682493;85;21156;-67
2023/11/03 07:18:08;;;;;;;14.13;6.75;;;;;;;7.79;90.83;99904.23;1682506;85;21497;-67
2023/11/03 07:20:37;;;;;;;14.03;7.25;;;;;;;7.83;90.64;99896.87;1682632;85;21098;-65
2023/11/03 07:23:07;;;;;;;13.80;7.50;;;;;;;7.88;90.55;99896.30;1682669;85;21114;-67
2023/11/03 07:25:36;;;;;;;14.95;7.30;;;;;;;7.92;90.46;99895.71;1682562;85;21510;-66
2023/11/03 07:28:05;;;;;;;14.40;7.62;;;;;;;8.05;90.70;99896.38;1682512;85;21483;-68
2023/11/03 07:30:35;;;;;;;12.35;6.87;;;;;;;8.33;91.18;99892.87;1682438;85;21467;-66
2023/11/03 07:33:06;;;;;;;12.30;6.47;;;;;;;8.78;91.36;99884.80;1682772;85;21075;-67
2023/11/03 07:35:35;;;;;;;12.55;6.75;;;;;;;9.27;90.20;99888.83;1682430;85;21070;-67
2023/11/03 07:38:04;;;;;;;12.47;6.80;;;;;;;9.72;88.44;99884.63;1682659;85;21603;-67
2023/11/03 07:40:34;;;;;;;13.48;6.85;;;;;;;10.11;86.79;99890.77;1682420;85;21062;-68
2023/11/03 07:43:04;;;;;;;17.82;6.95;;;;;;;10.47;83.85;99900.57;1682492;85;21481;-68
2023/11/03 07:45:33;;;;;;;10.18;5.70;;;;;;;10.83;81.69;99907.53;1682778;85;21011;-67
2023/11/03 07:48:02;;;;;;;9.35;5.75;;;;;;;11.19;80.35;99912.05;1659678;85;21074;-68
2023/11/03 07:50:31;;;;;;;11.63;5.95;;;;;;;11.58;78.76;99908.36;1682562;85;21023;-67
2023/11/03 07:53:00;;;;;;;10.82;5.30;;;;;;;11.91;76.38;99906.08;1682371;85;21490;-68
2023/11/03 07:55:29;;;;;;;12.45;5.50;;;;;;;12.23;74.79;99905.05;1682316;85;21039;-69
2023/11/03 07:57:57;;;;;;;14.28;6.25;;;;;;;12.48;72.88;99906.50;1682428;85;21110;-69
2023/11/03 08:00:27;;;;;;;10.13;5.80;;;;;;;12.67;71.45;99902.76;1682549;85;21083;-67
2023/11/03 08:02:56;;;;;;;8.05;4.95;;;;;;;12.81;69.83;99906.77;1682560;85;21467;-67
2023/11/03 08:05:26;;;;;;;9.33;5.25;;;;;;;12.85;69.25;99903.88;1682376;85;21530;-69
2023/11/03 08:07:55;;;;;;;7.67;4.85;;;;;;;12.93;68.78;99911.31;1682313;85;21062;-69
2023/11/03 08:10:25;;;;;;;8.75;4.92;;;;;;;12.98;68.05;99910.11;1682613;85;21499;-70
2023/11/03 08:12:54;;;;;;;9.85;5.22;;;;;;;13.02;67.77;99913.28;1682546;85;21047;-68
2023/11/03 08:15:24;;;;;;;8.63;4.42;;;;;;;12.97;66.93;99901.55;1682423;84;21110;-69
2023/11/03 08:17:53;;;;;;;12.45;5.55;;;;;;;12.96;66.96;99900.40;1682468;85;21486;-69
2023/11/03 08:20:23;;;;;;;10.30;4.67;;;;;;;12.91;66.90;99891.45;1682479;85;21528;-70
2023/11/03 08:22:52;;;;;;;12.20;5.35;;;;;;;12.90;66.87;99898.02;1682405;85;21043;-68
2023/11/03 08:25:22;;;;;;;5.92;3.95;;;;;;;12.89;66.45;99893.59;1682481;85;21046;-68
2023/11/03 08:27:51;;;;;;;5.45;4.25;;;;;;;12.87;65.83;99886.09;1682418;85;21122;-68
2023/11/03 08:30:21;;;;;;;8.10;4.08;;;;;;;12.80;65.59;99885.31;1682660;85;21035;-67
2023/11/03 08:32:51;;;;;;;7.62;3.72;;;;;;;12.68;65.15;99877.48;1682519;85;21074;-68
2023/11/03 08:35:21;;;;;;;6.67;4.08;;;;;;;12.56;65.08;99877.38;1682419;85;21520;-67
2023/11/03 08:37:54;;;;;;;6.83;3.52;;;;;;;12.47;65.18;99875.12;1682568;85;21532;-67
2023/11/03 08:40:23;;;;;;;6.58;3.35;;;;;;;12.38;65.39;99864.41;1682712;85;21059;-68
2023/11/03 08:42:53;;;;;;;6.37;3.90;;;;;;;12.30;65.13;99850.91;1682411;85;21486;-68
2023/11/03 08:45:23;;;;;;;6.42;3.83;;;;;;;12.23;65.36;99859.73;1682699;85;21079;-68
2023/11/03 08:47:54;;;;;;;6.28;3.55;;;;;;;12.20;65.53;99855.21;1681661;85;21537;-71
2023/11/03 08:50:24;;;;;;;6.65;4.03;;;;;;;12.15;65.05;99866.86;1668865;85;21048;-69
2023/11/03 08:52:54;;;;;;;6.00;3.45;;;;;;;12.07;65.30;99865.75;1650730;85;21146;-71
2023/11/03 08:55:25;;;;;;;5.90;3.15;;;;;;;12.04;65.14;99866.19;1647420;87;21553;-68
2023/11/03 08:57:57;;;;;;;7.45;3.40;;;;;;;12.01;65.32;99863.36;1669107;85;21055;-71
2023/11/03 09:00:27;;;;;;;6.12;3.55;;;;;;;11.99;65.50;99852.28;1657111;85;21170;-70
2023/11/03 09:02:56;;;;;;;7.35;3.83;;;;;;;11.96;65.50;99849.45;1654874;86;21561;-66
2023/11/03 09:05:26;;;;;;;6.08;3.75;;;;;;;11.97;67.58;99847.55;1654574;85;21090;-66
2023/11/03 09:07:55;;;;;;;6.00;3.58;;;;;;;12.03;68.10;99854.90;1653340;87;21171;-66
2023/11/03 09:10:28;;;;;;;6.95;3.52;;;;;;;12.08;68.32;99845.47;1653542;87;21138;-67
2023/11/03 09:12:55;;;;;;;5.40;3.10;;;;;;;12.15;68.11;99830.31;1653334;87;21047;-67
2023/11/03 09:15:25;;;;;;;6.60;3.35;;;;;;;12.20;66.89;99828.59;1633652;86;21562;-69
2023/11/03 09:17:56;;;;;;;6.45;3.20;;;;;;;12.20;65.68;99820.88;1661651;86;21519;-69
2023/11/03 09:20:25;;;;;;;5.10;3.00;;;;;;;12.16;64.86;99820.48;1661521;86;21122;-68
2023/11/03 09:22:54;;;;;;;4.70;2.90;;;;;;;12.11;64.50;99818.94;1672681;85;21501;-70
2023/11/03 09:25:25;;;;;;;8.58;3.30;;;;;;;12.05;64.36;99817.08;1690824;84;21026;-69
2023/11/03 09:27:54;;;;;;;5.33;2.87;;;;;;;12.02;64.44;99817.52;1663931;85;21089;-68
2023/11/03 09:30:24;;;;;;;5.65;2.80;;;;;;;11.99;64.62;99814.69;1691250;84;21185;-66
2023/11/03 09:32:53;;;;;;;6.62;3.40;;;;;;;11.99;64.79;99803.70;1691111;85;21062;-68
2023/11/03 09:35:22;;;;;;;5.40;3.37;;;;;;;11.99;64.81;99805.08;1691021;85;21028;-70
2023/11/03 09:37:51;;;;;;;4.60;3.02;;;;;;;11.97;63.90;99802.24;1690939;85;21059;-69
2023/11/03 09:40:20;;;;;;;5.58;2.70;;;;;;;11.96;63.55;99807.42;1691026;84;21528;-68
2023/11/03 09:42:49;;;;;;;3.95;2.62;;;;;;;11.93;62.59;99794.14;1690921;85;21205;-67
2023/11/03 09:45:23;;;;;;;6.97;2.85;;;;;;;11.89;61.80;99799.77;1691139;84;21333;-69
2023/11/03 09:47:49;;;;;;;5.03;2.45;;;;;;;11.86;61.83;99810.66;1691039;85;21062;-69
2023/11/03 09:50:20;;;;;;;6.10;2.92;;;;;;;11.88;61.33;99799.45;1690961;84;21094;-69
2023/11/03 09:52:49;;;;;;;5.53;3.02;;;;;;;11.83;61.35;99787.77;1691080;84;21458;-67
2023/11/03 09:55:19;;;;;;;4.62;3.10;;;;;;;11.81;61.44;99783.55;1691088;85;21094;-68
2023/11/03 09:57:52;;;;;;;5.22;3.10;;;;;;;11.79;61.70;99782.41;1671653;85;21548;-67
2023/11/03 10:00:22;;;;;;;7.22;3.45;;;;;;;11.81;61.87;99787.67;1663120;86;21015;-68
2023/11/03 10:02:52;;;;;;;3.58;2.65;;;;;;;11.82;61.82;99781.13;1663134;86;21498;-68
2023/11/03 10:05:23;;;;;;;5.15;2.92;;;;;;;11.82;61.93;99779.22;1636793;86;21503;-67
2023/11/03 10:08:01;;;;;;;5.83;3.20;;;;;;;11.86;62.27;99785.95;1663315;86;21059;-69
2023/11/03 10:10:33;;;;;;;5.47;3.47;;;;;;;11.87;62.09;99775.81;1663481;86;21063;-67
2023/11/03 10:13:11;;;;;;;7.03;3.15;;;;;;;11.86;62.06;99779.62;1636756;86;21528;-68
2023/11/03 10:15:40;;;;;;;8.23;3.60;;;;;;;11.86;62.57;99773.59;1662636;85;21102;-68
2023/11/03 10:18:10;;;;;;;6.53;3.15;;;;;;;11.87;62.53;99763.45;1661312;86;21112;-68
2023/11/03 10:20:39;;;;;;;9.00;4.42;;;;;;;11.90;62.49;99772.63;1661543;86;21130;-66
2023/11/03 10:23:08;;;;;;;5.87;3.22;;;;;;;11.92;62.69;99770.50;1661472;86;21051;-67
2023/11/03 10:25:37;;;;;;;7.85;3.15;;;;;;;11.95;62.50;99772.80;1661623;86;21161;-68
2023/11/03 10:28:08;;;;;;;5.37;3.10;;;;;;;11.98;62.49;99765.48;1661566;86;21134;-69
2023/11/03 10:30:37;;;;;;;7.87;3.40;;;;;;;12.00;62.32;99765.58;1661528;86;21074;-68
2023/11/03 10:33:07;;;;;;;10.20;3.40;;;;;;;12.02;61.96;99763.98;1661665;86;21042;-70
2023/11/03 10:35:36;;;;;;;6.78;2.65;;;;;;;12.01;61.92;99761.77;1661513;86;21443;-68
2023/11/03 10:38:05;;;;;;;6.92;2.60;;;;;;;12.00;62.09;99760.61;1661522;86;21058;-70
2023/11/03 10:40:33;;;;;;;5.05;2.70;;;;;;;11.99;61.76;99757.56;1661611;86;21122;-69
2023/11/03 10:43:02;;;;;;;6.78;3.45;;;;;;;12.00;61.75;99750.47;1661540;86;21027;-68
2023/11/03 10:45:32;;;;;;;6.90;3.52;;;;;;;12.00;61.57;99745.52;1661517;86;21513;-67
2023/11/03 10:48:23;;;;;;;5.87;3.22;;;;;;;12.00;61.67;99740.02;1661589;86;21050;-69
2023/11/03 10:51:12;;;;;;;7.90;3.17;;;;;;;12.02;61.85;99737.36;1661408;86;21032;-69
2023/11/03 10:54:10;;;;;;;5.62;3.05;;;;;;;12.03;61.69;99736.83;1661464;86;21110;-68
2023/11/03 10:56:40;;;;;;;5.20;2.80;;;;;;;12.03;61.81;99734.09;1658496;86;21301;-70
2023/11/03 10:59:10;;;;;;;7.87;2.95;;;;;;;12.01;61.76;99727.45;1611445;88;21086;-68
2023/11/03 11:01:45;;;;;;;7.35;2.92;;;;;;;12.02;61.91;99725.01;1615308;89;21539;-67
2023/11/03 11:04:20;;;;;;;10.93;3.20;;;;;;;12.04;61.87;99713.80;1615251;89;21061;-68
2023/11/03 11:06:54;;;;;;;6.72;2.90;;;;;;;12.04;61.34;99718.76;1615580;89;21093;-68
2023/11/03 11:09:40;;;;;;;7.22;2.95;;;;;;;12.06;61.29;99721.28;1615469;89;21469;-70
2023/11/03 11:12:09;;;;;;;6.97;3.00;;;;;;;12.06;61.19;99723.50;1615258;89;21102;-67
2023/11/03 11:14:39;;;;;;;10.48;3.12;;;;;;;12.10;61.03;99728.54;1615378;89;21086;-69
2023/11/03 11:17:11;;;;;;;7.28;3.05;;;;;;;12.10;60.34;99719.77;1620874;87;21055;-70
2023/11/03 11:19:46;;;;;;;9.90;3.77;;;;;;;12.10;60.29;99728.01;1621665;88;21139;-70
2023/11/03 11:22:19;;;;;;;7.85;3.20;;;;;;;12.11;60.18;99729.69;1621567;88;21686;-69
2023/11/03 11:24:48;;;;;;;6.30;3.05;;;;;;;12.13;60.14;99726.19;1621493;88;21106;-67
2023/11/03 11:27:26;;;;;;;5.12;2.85;;;;;;;12.13;60.29;99720.70;1603396;88;21079;-68
2023/11/03 11:30:03;;;;;;;6.30;3.12;;;;;;;12.13;60.00;99711.61;1621602;88;21084;-68
2023/11/03 11:32:32;;;;;;;8.95;3.72;;;;;;;12.10;60.21;99705.20;1621581;88;21076;-70
2023/11/03 11:35:01;;;;;;;9.53;3.90;;;;;;;12.10;60.39;99704.66;1621487;88;21499;-68
2023/11/03 11:37:31;;;;;;;8.88;3.87;;;;;;;12.10;60.72;99700.55;1621556;88;21206;-67
2023/11/03 11:40:04;;;;;;;12.47;4.35;;;;;;;12.11;61.22;99689.88;1621448;88;21056;-69
2023/11/03 11:42:43;;;;;;;8.38;3.72;;;;;;;12.13;61.44;99698.72;1621585;88;21128;-68
2023/11/03 11:45:18;;;;;;;8.58;4.00;;;;;;;12.14;61.53;99690.80;1621764;88;21127;-68